Time;durP1;ratioP1;P1;durP2;ratioP2;P2;SDS_P1;SDS_P2;PMS_P1;PMS_P2;Temp;Humidity;BMP_temperature;BMP_pressure;BME280_temperature;BME280_humidity;BME280_pressure;Samples;Min_cycle;Max_cycle;Signal;HPM_P1;HPM_P2
2022/12/01 00:01:45;;;;;;;54.80;25.95;;;1.30;99.90;;;1.29;96.44;102331.59;4940006;29;20177;-79
2022/12/01 00:04:15;;;;;;;71.95;28.10;;;1.40;99.90;;;1.19;96.27;102324.34;4939413;29;20233;-78
2022/12/01 00:06:44;;;;;;;62.72;24.00;;;1.30;99.90;;;1.23;96.66;102332.03;4922721;29;20216;-79
2022/12/01 00:12:02;;;;;;;62.45;24.27;;;1.40;99.90;;;1.15;96.00;102320.19;4941092;29;20589;-79
2022/12/01 00:14:31;;;;;;;58.33;25.60;;;1.30;99.90;;;1.17;96.37;102320.91;4957240;29;20320;-79
2022/12/01 00:17:01;;;;;;;54.47;22.23;;;1.30;99.90;;;1.30;96.73;102319.97;4958018;28;20192;-79
2022/12/01 00:19:32;;;;;;;63.40;27.45;;;1.30;99.90;;;1.43;96.01;102317.28;4958068;28;20200;-79
2022/12/01 00:22:01;;;;;;;64.43;28.05;;;1.40;99.90;;;1.48;95.83;102319.63;4960168;28;20236;-78
2022/12/01 00:24:32;;;;;;;52.50;25.98;;;1.50;99.90;;;1.72;95.24;102323.22;4958891;29;20218;-79
2022/12/01 00:27:01;;;;;;;47.40;21.88;;;1.60;99.90;;;1.81;94.89;102316.34;4960016;29;20239;-79
2022/12/01 00:29:33;;;;;;;57.97;25.75;;;1.80;99.90;;;1.77;93.24;102326.41;4959078;28;20535;-79
2022/12/01 00:32:02;;;;;;;53.47;24.05;;;1.80;99.90;;;1.66;93.37;102323.63;4959538;29;20293;-80
2022/12/01 00:34:31;;;;;;;54.33;24.38;;;1.70;99.90;;;1.56;93.38;102322.59;4960841;28;20549;-79
2022/12/01 00:37:00;;;;;;;66.20;28.45;;;1.60;99.90;;;1.64;93.90;102320.25;4968965;28;20207;-79
2022/12/01 00:39:31;;;;;;;50.92;23.40;;;1.70;99.90;;;1.76;93.13;102316.69;4959357;29;20198;-80
2022/12/01 00:42:00;;;;;;;58.25;25.00;;;1.80;99.90;;;1.71;93.14;102321.50;4957948;29;20643;-78
2022/12/01 00:44:29;;;;;;;56.22;22.48;;;1.70;99.90;;;1.61;93.47;102315.97;4957615;29;20211;-78
2022/12/01 00:46:58;;;;;;;56.85;25.73;;;1.60;99.90;;;1.66;92.98;102323.63;4956754;29;20219;-78
2022/12/01 00:49:27;;;;;;;54.97;26.02;;;1.70;99.90;;;1.68;93.43;102317.25;4958801;29;20204;-78
2022/12/01 00:51:56;;;;;;;48.00;24.73;;;1.70;99.90;;;1.67;93.19;102323.53;4961862;29;20219;-78
2022/12/01 00:54:25;;;;;;;58.10;26.60;;;1.70;99.90;;;1.67;93.21;102326.22;4962598;29;20235;-78
2022/12/01 00:56:56;;;;;;;69.07;28.77;;;1.70;99.90;;;1.72;93.02;102328.53;4944067;29;20181;-78
2022/12/01 00:59:26;;;;;;;54.80;26.13;;;1.70;99.90;;;1.72;92.64;102332.06;4948143;29;20192;-78
2022/12/01 01:01:55;;;;;;;55.15;25.20;;;1.70;99.90;;;1.64;92.40;102333.59;4959194;29;20189;-78
2022/12/01 01:04:25;;;;;;;58.90;26.40;;;1.70;99.90;;;1.45;93.29;102334.06;4965310;28;20204;-79
2022/12/01 01:06:53;;;;;;;75.72;27.23;;;1.60;99.90;;;1.54;93.77;102341.41;4957494;29;20207;-79
2022/12/01 01:09:22;;;;;;;54.17;22.75;;;1.60;99.90;;;1.53;93.44;102349.50;4958608;28;20204;-80
2022/12/01 01:11:51;;;;;;;60.00;23.67;;;1.60;99.90;;;1.60;92.97;102346.28;4960295;29;20204;-80
2022/12/01 01:14:23;;;;;;;56.03;24.02;;;1.70;99.90;;;1.61;93.67;102349.81;4958454;29;20204;-79
2022/12/01 01:16:52;;;;;;;70.05;27.13;;;1.70;99.90;;;1.67;93.25;102346.69;4958196;28;20172;-79
2022/12/01 01:19:22;;;;;;;52.67;25.10;;;1.70;99.90;;;1.48;92.79;102340.97;4959028;28;20227;-80
2022/12/01 01:21:51;;;;;;;55.83;24.08;;;1.60;99.90;;;1.53;93.06;102345.03;4958780;29;20180;-79
2022/12/01 01:24:21;;;;;;;58.58;24.25;;;1.60;99.90;;;1.43;93.05;102343.97;4958016;29;20240;-79
2022/12/01 01:26:50;;;;;;;50.78;23.67;;;1.60;99.90;;;1.31;93.69;102347.47;4958189;28;20216;-80
2022/12/01 01:29:21;;;;;;;65.45;25.77;;;1.50;99.90;;;1.31;93.90;102345.66;4958124;29;20275;-80
2022/12/01 01:31:51;;;;;;;62.35;29.15;;;1.40;99.90;;;1.25;93.94;102346.13;4956912;28;20309;-78
2022/12/01 01:34:20;;;;;;;65.68;26.33;;;1.40;99.90;;;1.11;94.55;102338.22;4957006;29;20418;-79
2022/12/01 01:36:49;;;;;;;61.88;22.75;;;1.30;99.90;;;1.08;95.10;102337.56;4962596;29;20231;-78
2022/12/01 01:39:18;;;;;;;47.15;25.13;;;1.20;99.90;;;1.25;95.04;102343.44;4958635;29;20251;-80
2022/12/01 01:41:47;;;;;;;58.55;26.20;;;1.30;99.90;;;1.20;94.80;102342.06;4939181;29;20207;-78
2022/12/01 01:44:51;;;;;;;48.92;21.23;;;1.30;99.90;;;1.13;95.13;102336.28;4956471;29;20244;-78
2022/12/01 01:47:27;;;;;;;66.15;26.33;;;1.30;99.90;;;1.09;95.97;102345.47;4957111;29;20678;-78
2022/12/01 01:50:04;;;;;;;73.18;25.48;;;1.20;99.90;;;1.20;95.56;102347.38;4956953;29;20179;-79
2022/12/01 01:52:36;;;;;;;58.38;23.35;;;1.20;99.90;;;1.23;95.37;102342.69;4958292;29;20199;-80
2022/12/01 01:55:07;;;;;;;49.40;28.17;;;1.30;99.90;;;1.20;95.20;102342.91;4940731;29;20797;-79
2022/12/01 01:57:38;;;;;;;71.28;25.83;;;1.30;99.90;;;1.18;95.48;102339.47;4957882;29;20529;-79
2022/12/01 02:00:13;;;;;;;60.53;26.05;;;1.30;99.90;;;1.13;95.66;102344.28;4958686;29;20603;-79
2022/12/01 02:02:47;;;;;;;56.22;22.48;;;1.30;99.90;;;1.26;95.60;102334.47;4959123;29;20207;-79
2022/12/01 02:05:22;;;;;;;48.78;21.92;;;1.30;99.90;;;1.12;95.59;102339.91;4957199;29;20677;-79
2022/12/01 02:07:53;;;;;;;49.50;26.52;;;1.30;99.90;;;1.11;96.25;102340.88;4956764;28;20491;-80
2022/12/01 02:10:35;;;;;;;49.20;25.48;;;1.30;99.90;;;1.09;96.23;102340.13;4939390;29;20212;-79
2022/12/01 02:13:19;;;;;;;66.43;26.55;;;1.20;99.90;;;1.06;96.52;102334.16;4956229;29;20239;-79
2022/12/01 02:16:06;;;;;;;69.25;27.27;;;1.20;99.90;;;1.10;96.53;102341.84;4939544;29;20216;-78
2022/12/01 02:18:50;;;;;;;65.72;24.55;;;1.20;99.90;;;1.07;96.70;102330.50;4955865;29;20207;-78
2022/12/01 02:21:45;;;;;;;58.75;24.83;;;1.20;99.90;;;1.13;97.13;102330.09;4954831;29;20555;-78
2022/12/01 02:25:03;;;;;;;76.47;29.40;;;1.20;99.90;;;1.20;97.01;102323.38;4954713;29;20208;-78
2022/12/01 02:27:58;;;;;;;56.17;24.33;;;1.20;99.90;;;1.13;97.19;102322.94;4956443;29;20508;-79
2022/12/01 02:30:39;;;;;;;64.18;22.33;;;1.20;99.90;;;1.09;97.79;102323.28;4937362;29;20316;-79
2022/12/01 02:33:18;;;;;;;60.85;25.92;;;1.20;99.90;;;1.11;97.86;102316.91;4920454;29;20258;-78
2022/12/01 02:35:53;;;;;;;66.05;24.85;;;1.20;99.90;;;1.11;97.78;102318.69;4937617;29;20183;-78
2022/12/01 02:38:31;;;;;;;60.75;26.40;;;1.20;99.90;;;1.22;97.93;102324.97;4942811;29;20207;-79
2022/12/01 02:41:10;;;;;;;69.75;26.70;;;1.20;99.90;;;1.14;97.63;102319.34;4942349;29;20614;-79
2022/12/01 02:43:51;;;;;;;69.97;27.65;;;1.30;99.90;;;1.08;98.18;102317.09;4953167;29;20212;-79
2022/12/01 02:46:37;;;;;;;113.18;43.80;;;1.20;99.90;;;1.04;98.17;102317.41;4958198;29;20196;-78
2022/12/01 02:49:13;;;;;;;78.30;26.77;;;1.20;99.90;;;1.04;98.59;102314.75;4957496;29;20240;-78
2022/12/01 02:51:45;;;;;;;74.82;28.08;;;1.20;99.90;;;1.01;98.93;102310.50;4958521;28;20683;-79
2022/12/01 02:54:15;;;;;;;57.28;25.73;;;1.20;99.90;;;0.99;98.67;102314.19;4962981;29;20216;-79
2022/12/01 02:56:45;;;;;;;80.53;27.33;;;1.20;99.90;;;0.92;99.05;102308.44;4967737;29;20196;-79
2022/12/01 02:59:15;;;;;;;78.38;27.17;;;1.10;99.90;;;0.91;99.43;102314.75;4972805;29;20176;-78
2022/12/01 03:02:04;;;;;;;92.32;24.90;;;1.10;99.90;;;0.87;99.71;102322.06;4974313;29;20176;-78
2022/12/01 03:04:56;;;;;;;79.55;29.17;;;1.00;99.90;;;0.82;99.92;102321.53;4975731;29;20208;-78
2022/12/01 03:07:47;;;;;;;60.85;25.58;;;1.00;99.90;;;0.86;100.00;102322.19;4975681;29;20260;-78
2022/12/01 03:10:26;;;;;;;68.43;23.90;;;1.00;99.90;;;0.77;99.96;102323.69;4975491;29;20187;-78
2022/12/01 03:13:15;;;;;;;60.42;27.65;;;0.90;99.90;;;0.67;100.00;102317.28;4975881;29;20196;-78
2022/12/01 03:15:56;;;;;;;67.70;25.67;;;0.80;99.90;;;0.70;100.00;102322.38;4958874;29;20621;-78
2022/12/01 03:18:35;;;;;;;71.30;29.55;;;0.80;99.90;;;0.72;100.00;102330.28;4960414;29;20230;-78
2022/12/01 03:21:13;;;;;;;60.40;25.00;;;0.90;99.90;;;0.79;100.00;102321.75;4942320;29;20198;-78
2022/12/01 03:23:48;;;;;;;62.20;23.05;;;0.90;99.90;;;0.82;100.00;102320.72;4943177;29;20307;-79
2022/12/01 03:26:22;;;;;;;55.90;26.77;;;0.90;99.90;;;0.73;99.73;102329.28;4961389;29;20689;-79
2022/12/01 03:28:58;;;;;;;69.82;26.58;;;0.90;99.90;;;0.69;100.00;102326.00;4959941;29;20173;-79
2022/12/01 03:31:33;;;;;;;67.93;26.50;;;0.90;99.90;;;0.76;100.00;102323.78;4944447;29;20215;-80
2022/12/01 03:34:11;;;;;;;80.10;25.25;;;0.90;99.90;;;0.73;100.00;102321.31;4940920;29;20224;-80
2022/12/01 03:36:48;;;;;;;91.35;26.77;;;0.80;99.90;;;0.84;100.00;102318.78;4947037;29;20180;-79
2022/12/01 03:39:24;;;;;;;68.32;23.88;;;0.90;99.90;;;0.87;99.95;102314.06;4950994;29;20176;-79
2022/12/01 03:42:00;;;;;;;79.38;28.55;;;1.00;99.90;;;0.80;99.88;102319.94;4949666;29;20197;-79
2022/12/01 03:44:38;;;;;;;65.60;26.48;;;1.00;99.90;;;0.74;100.00;102312.38;4945123;29;20232;-78
2022/12/01 03:47:13;;;;;;;61.08;21.92;;;0.90;99.90;;;0.65;100.00;102319.19;4943749;29;20177;-78
2022/12/01 03:49:46;;;;;;;64.88;25.40;;;0.80;99.90;;;0.64;100.00;102327.25;4941272;29;20253;-78
2022/12/01 03:52:29;;;;;;;69.57;27.13;;;0.80;99.90;;;0.63;99.95;102314.91;4944995;29;20216;-79
2022/12/01 03:55:11;;;;;;;54.20;22.40;;;0.80;99.90;;;0.63;100.00;102330.91;4951549;28;20251;-79
2022/12/01 03:57:47;;;;;;;59.33;23.55;;;0.80;99.90;;;0.64;99.87;102335.25;4957996;29;20618;-79
2022/12/01 04:00:17;;;;;;;93.53;25.67;;;0.80;99.90;;;0.74;99.95;102331.00;4963363;29;20203;-79
2022/12/01 04:02:47;;;;;;;57.83;23.23;;;0.80;99.90;;;0.79;99.24;102331.56;4960657;29;20184;-80
2022/12/01 04:05:18;;;;;;;60.28;24.40;;;0.90;99.90;;;0.85;98.99;102334.66;4942759;29;20699;-79
2022/12/01 04:07:53;;;;;;;51.88;23.90;;;0.90;99.90;;;0.84;98.41;102332.09;4959906;29;20612;-79
2022/12/01 04:10:23;;;;;;;67.55;26.38;;;0.90;99.90;;;0.91;97.67;102340.53;4957474;28;20220;-78
2022/12/01 04:12:57;;;;;;;68.07;27.17;;;1.00;99.90;;;0.85;97.85;102347.13;4957013;28;20616;-77
2022/12/01 04:15:27;;;;;;;78.95;29.17;;;1.00;99.90;;;0.85;97.43;102348.00;4956132;29;20745;-77
2022/12/01 04:17:56;;;;;;;68.85;25.20;;;1.00;99.90;;;0.81;97.12;102345.66;4956747;29;20188;-78
2022/12/01 04:20:27;;;;;;;60.75;23.67;;;1.00;99.90;;;0.78;97.17;102348.50;4957323;28;20604;-78
2022/12/01 04:22:55;;;;;;;66.63;24.92;;;1.00;99.90;;;0.72;96.90;102347.13;4960153;29;20176;-78
2022/12/01 04:25:24;;;;;;;53.08;21.58;;;0.90;99.90;;;0.65;97.03;102342.28;4956709;28;20216;-80
2022/12/01 04:27:53;;;;;;;60.50;25.95;;;0.80;99.90;;;0.65;97.35;102334.31;4957384;28;20271;-78
2022/12/01 04:30:22;;;;;;;42.15;20.65;;;0.80;99.90;;;0.65;97.15;102342.28;4939889;29;20323;-78
2022/12/01 04:32:51;;;;;;;59.17;24.23;;;0.80;99.90;;;0.68;96.73;102344.75;4956448;29;20219;-80
2022/12/01 04:35:20;;;;;;;50.92;24.23;;;0.80;99.90;;;0.62;97.04;102345.19;4956114;28;20212;-77
2022/12/01 04:37:50;;;;;;;73.38;26.35;;;0.70;99.90;;;0.63;97.31;102344.22;4956936;28;20199;-78
2022/12/01 04:40:20;;;;;;;49.00;22.52;;;0.80;99.90;;;0.74;97.11;102344.34;4957004;29;20180;-79
2022/12/01 04:42:49;;;;;;;55.22;23.38;;;0.80;99.90;;;0.76;96.83;102348.63;4957488;28;20200;-77
2022/12/01 04:45:18;;;;;;;67.07;25.02;;;0.90;99.90;;;0.71;96.51;102344.56;4958730;28;20219;-80
2022/12/01 04:47:46;;;;;;;63.13;25.58;;;0.90;99.90;;;0.74;96.60;102347.00;4957430;29;20628;-79
2022/12/01 04:50:15;;;;;;;57.95;22.75;;;0.90;99.90;;;0.69;96.62;102343.78;4958149;28;20268;-82
2022/12/01 04:52:45;;;;;;;49.25;24.40;;;0.90;99.90;;;0.63;96.60;102347.72;4957559;28;20671;-79
2022/12/01 04:55:15;;;;;;;57.33;24.20;;;0.80;99.90;;;0.70;96.86;102356.16;4957560;28;20765;-79
2022/12/01 04:57:44;;;;;;;69.80;25.77;;;0.80;99.90;;;0.61;97.02;102362.13;4959117;29;20184;-80
2022/12/01 05:00:15;;;;;;;89.78;28.50;;;0.80;99.90;;;0.49;98.08;102355.78;4958984;29;20275;-78
2022/12/01 05:02:44;;;;;;;68.53;26.55;;;0.70;99.90;;;0.52;97.78;102354.72;4958110;29;20212;-79
2022/12/01 05:05:14;;;;;;;63.60;24.30;;;0.70;99.90;;;0.54;98.06;102360.78;4959059;29;20214;-80
2022/12/01 05:07:43;;;;;;;61.70;25.10;;;0.70;99.90;;;0.54;97.91;102358.13;4959335;29;20623;-80
2022/12/01 05:10:13;;;;;;;64.05;28.90;;;0.70;99.90;;;0.55;97.96;102360.72;4957853;29;20192;-79
2022/12/01 05:12:45;;;;;;;61.85;27.02;;;0.60;99.90;;;0.63;98.22;102352.22;4957497;29;20264;-80
2022/12/01 05:15:14;;;;;;;68.03;25.95;;;0.70;99.90;;;0.82;97.24;102355.34;4957590;28;20212;-80
2022/12/01 05:17:43;;;;;;;67.13;26.65;;;0.80;99.90;;;0.78;96.79;102362.69;4957911;29;20622;-79
2022/12/01 05:23:10;;;;;;;63.60;29.92;;;0.80;99.90;;;0.70;96.89;102358.81;4958683;29;20198;-80
2022/12/01 05:25:44;;;;;;;57.63;31.15;;;0.80;99.90;;;0.65;96.79;102355.63;4956601;29;20176;-80
2022/12/01 05:28:14;;;;;;;83.30;33.05;;;0.80;99.90;;;0.58;97.05;102359.66;4961526;28;20191;-79
2022/12/01 05:30:44;;;;;;;64.22;27.42;;;0.70;99.90;;;0.58;97.32;102357.00;4964783;29;20235;-80
2022/12/01 05:33:13;;;;;;;64.13;27.38;;;0.70;99.90;;;0.60;96.84;102360.41;4960045;29;20255;-80
2022/12/01 05:35:43;;;;;;;65.93;29.13;;;0.70;99.90;;;0.61;97.13;102362.13;4959889;28;20605;-81
2022/12/01 05:38:11;;;;;;;57.88;26.60;;;0.70;99.90;;;0.52;97.15;102366.25;4959810;28;20219;-79
2022/12/01 05:40:40;;;;;;;55.70;25.52;;;0.70;99.90;;;0.42;97.21;102371.31;4960455;28;20292;-79
2022/12/01 05:43:09;;;;;;;62.75;26.75;;;0.60;99.90;;;0.41;97.35;102369.63;4941456;29;20196;-80
2022/12/01 05:45:40;;;;;;;52.22;25.25;;;0.60;99.90;;;0.47;97.45;102364.84;4958244;28;20267;-79
2022/12/01 05:48:09;;;;;;;60.83;25.02;;;0.60;99.90;;;0.48;97.27;102374.53;4959246;29;20187;-80
2022/12/01 05:50:40;;;;;;;47.92;22.60;;;0.60;99.90;;;0.47;96.72;102378.16;4962009;28;20188;-82
2022/12/01 05:53:12;;;;;;;66.05;26.23;;;0.60;99.90;;;0.46;96.65;102376.44;4962223;29;20224;-80
2022/12/01 05:55:42;;;;;;;58.45;25.00;;;0.60;99.90;;;0.45;96.43;102380.91;4957465;29;20227;-80
2022/12/01 05:58:11;;;;;;;66.07;25.13;;;0.60;99.90;;;0.45;96.50;102394.22;4961304;29;20176;-81
2022/12/01 06:00:42;;;;;;;65.72;25.73;;;0.60;99.90;;;0.53;95.80;102383.09;4958663;29;20196;-80
2022/12/01 06:03:14;;;;;;;50.42;26.17;;;0.60;99.90;;;0.54;96.04;102379.44;4959117;29;20164;-79
2022/12/01 06:05:43;;;;;;;60.53;26.35;;;0.60;99.90;;;0.52;95.59;102374.25;4959100;29;20184;-79
2022/12/01 06:08:12;;;;;;;61.65;26.35;;;0.70;99.90;;;0.40;96.12;102383.88;4962669;29;20184;-80
2022/12/01 06:10:41;;;;;;;62.40;28.67;;;0.60;99.90;;;0.36;96.84;102382.38;4963775;29;20195;-79
2022/12/01 06:13:10;;;;;;;58.00;25.70;;;0.60;99.90;;;0.42;96.73;102378.47;4959673;29;20224;-80
2022/12/01 06:15:41;;;;;;;59.15;27.52;;;0.60;99.90;;;0.43;97.09;102380.19;4958247;29;20590;-80
2022/12/01 06:18:10;;;;;;;67.65;29.55;;;0.50;99.90;;;0.44;96.93;102381.84;4959265;29;20264;-80
2022/12/01 06:20:39;;;;;;;54.75;28.30;;;0.50;99.90;;;0.52;96.91;102382.22;4959673;29;20191;-80
2022/12/01 06:23:08;;;;;;;54.80;26.52;;;0.60;99.90;;;0.57;95.81;102376.59;4963248;29;20188;-81
2022/12/01 06:25:37;;;;;;;73.68;33.03;;;0.60;99.90;;;0.54;96.13;102376.78;4966211;29;20216;-80
2022/12/01 06:28:06;;;;;;;71.85;29.95;;;0.60;99.90;;;0.52;96.10;102378.72;4966156;28;20204;-79
2022/12/01 06:30:35;;;;;;;59.47;26.77;;;0.60;99.90;;;0.52;96.16;102386.69;4967443;29;20196;-80
2022/12/01 06:33:05;;;;;;;68.65;28.45;;;0.70;99.90;;;0.60;96.09;102381.72;4967089;29;20199;-79
2022/12/01 06:35:35;;;;;;;65.55;26.48;;;0.70;99.90;;;0.56;95.69;102377.56;4961580;29;20579;-77
2022/12/01 06:38:04;;;;;;;62.70;30.20;;;0.70;99.90;;;0.49;95.81;102384.22;4963602;29;20201;-80
2022/12/01 06:40:33;;;;;;;74.57;28.38;;;0.60;99.90;;;0.57;95.53;102390.78;4962352;29;20213;-79
2022/12/01 06:43:05;;;;;;;67.95;28.95;;;0.70;99.90;;;0.63;95.34;102392.19;4944790;29;20196;-78
2022/12/01 06:45:35;;;;;;;71.30;33.45;;;0.70;99.90;;;0.56;95.44;102398.84;4964375;29;20215;-79
2022/12/01 06:48:07;;;;;;;66.88;29.30;;;0.70;99.90;;;0.58;95.33;102399.63;4964260;29;20208;-79
2022/12/01 06:50:36;;;;;;;60.15;31.60;;;0.70;99.90;;;0.70;95.29;102406.78;4946969;29;20192;-79
2022/12/01 06:53:05;;;;;;;58.65;28.52;;;0.70;99.90;;;0.77;95.15;102408.09;4951037;29;20206;-79
2022/12/01 06:55:34;;;;;;;56.45;26.02;;;0.80;99.90;;;0.82;94.28;102406.00;4964817;29;20754;-79
2022/12/01 06:58:29;;;;;;;62.00;28.60;;;0.90;99.90;;;0.80;94.05;102402.56;4965904;29;20188;-79
2022/12/01 07:01:07;;;;;;;53.15;24.65;;;0.90;99.90;;;0.77;94.04;102408.09;4946869;29;20721;-79
2022/12/01 07:03:37;;;;;;;66.65;27.35;;;0.90;99.90;;;0.77;94.04;102408.09;4970979;29;20176;-79
2022/12/01 07:06:06;;;;;;;62.97;27.33;;;0.90;99.90;;;0.61;93.81;102412.72;4973675;28;20188;-78
2022/12/01 07:08:35;;;;;;;58.90;28.30;;;0.80;99.90;;;0.56;94.54;102404.19;4966179;28;20221;-80
2022/12/01 07:11:07;;;;;;;66.13;25.92;;;0.70;99.90;;;0.67;94.38;102409.66;4967444;28;20196;-79
2022/12/01 07:13:36;;;;;;;65.72;28.33;;;0.70;99.90;;;0.57;94.24;102412.09;4964952;28;20263;-79
2022/12/01 07:16:07;;;;;;;71.32;28.42;;;0.80;99.90;;;0.57;94.15;102411.22;4963940;29;20236;-78
2022/12/01 07:18:39;;;;;;;70.18;28.38;;;0.70;99.90;;;0.53;94.33;102407.91;4970808;28;20767;-78
2022/12/01 07:21:12;;;;;;;85.45;30.80;;;0.70;99.90;;;0.54;94.52;102406.09;4971078;29;20723;-80
2022/12/01 07:23:41;;;;;;;67.30;29.95;;;0.70;99.90;;;0.67;94.90;102401.69;4958911;29;20214;-79
2022/12/01 07:26:13;;;;;;;82.03;31.08;;;0.70;99.90;;;0.71;94.04;102409.38;4960055;29;20283;-78
2022/12/01 07:28:42;;;;;;;72.13;28.13;;;0.80;99.90;;;0.64;94.02;102404.53;4959281;28;20555;-79
2022/12/01 07:31:14;;;;;;;70.25;26.58;;;0.80;99.90;;;0.62;93.92;102409.13;4980417;28;20666;-79
2022/12/01 07:33:44;;;;;;;87.78;31.10;;;0.70;99.90;;;0.76;93.82;102409.06;4980517;28;20211;-79
2022/12/01 07:36:14;;;;;;;97.32;30.73;;;0.80;99.90;;;0.78;93.07;102405.31;4944652;29;20251;-79
2022/12/01 07:38:43;;;;;;;101.70;35.47;;;0.80;99.90;;;0.76;93.04;102407.25;4960407;28;20200;-79
2022/12/01 07:41:15;;;;;;;97.45;32.25;;;0.80;99.90;;;0.75;92.45;102410.88;4941935;29;20218;-79
2022/12/01 07:43:45;;;;;;;79.22;35.15;;;0.80;99.90;;;0.75;92.81;102407.34;4957536;28;20212;-78
2022/12/01 07:46:17;;;;;;;87.07;31.30;;;0.80;99.90;;;0.97;91.77;102420.94;4974106;28;20183;-78
2022/12/01 07:48:53;;;;;;;84.80;35.15;;;1.00;99.90;;;0.87;91.83;102417.19;4949796;28;20196;-77
2022/12/01 07:51:25;;;;;;;108.43;40.38;;;1.00;99.90;;;0.80;91.94;102418.56;4967475;28;20191;-77
2022/12/01 07:53:55;;;;;;;103.40;40.17;;;0.90;99.90;;;0.74;92.62;102418.94;4976906;28;20207;-78
2022/12/01 07:56:24;;;;;;;130.48;42.63;;;0.90;99.90;;;0.77;92.26;102421.44;4978269;28;20215;-78
2022/12/01 07:58:54;;;;;;;118.25;41.72;;;0.90;99.90;;;0.77;92.12;102424.94;4969936;28;20250;-78
2022/12/01 08:01:25;;;;;;;88.65;36.60;;;0.90;99.90;;;0.83;92.23;102424.53;4959597;28;20202;-78
2022/12/01 08:03:58;;;;;;;121.75;39.25;;;0.90;99.90;;;0.84;91.92;102425.38;4942725;28;20216;-78
2022/12/01 08:06:28;;;;;;;123.80;40.47;;;0.90;99.90;;;0.75;92.05;102420.66;4977903;28;20659;-77
2022/12/01 08:08:57;;;;;;;86.75;35.85;;;0.90;99.90;;;0.84;91.96;102426.22;4973159;28;20177;-78
2022/12/01 08:11:28;;;;;;;102.75;38.63;;;0.90;99.90;;;0.95;92.00;102428.19;4959392;29;20659;-78
2022/12/01 08:13:57;;;;;;;102.07;37.55;;;1.00;99.90;;;0.95;91.89;102428.19;4960801;28;20749;-78
2022/12/01 08:16:26;;;;;;;103.97;38.67;;;1.00;99.90;;;1.00;91.56;102434.06;4976115;28;20279;-78
2022/12/01 08:18:59;;;;;;;74.32;31.27;;;1.10;99.90;;;0.96;91.42;102437.91;4960994;29;20195;-78
2022/12/01 08:21:27;;;;;;;89.53;37.85;;;1.00;99.90;;;0.92;91.51;102441.69;4961769;29;20176;-78
2022/12/01 08:23:58;;;;;;;114.85;35.10;;;1.00;99.90;;;1.01;91.20;102442.94;4963825;29;20208;-78
2022/12/01 08:26:28;;;;;;;89.60;35.30;;;1.10;99.90;;;1.01;91.15;102432.25;4944124;29;20233;-78
2022/12/01 08:28:58;;;;;;;89.88;38.47;;;1.00;99.90;;;1.00;91.19;102436.75;4957074;29;20200;-78
2022/12/01 08:31:30;;;;;;;79.80;32.65;;;1.00;99.90;;;1.04;91.04;102435.56;4956791;29;20221;-78
2022/12/01 08:34:01;;;;;;;96.38;38.80;;;1.10;99.90;;;1.11;90.90;102436.88;4957507;29;20218;-77
2022/12/01 08:36:34;;;;;;;88.90;36.60;;;1.20;99.90;;;1.11;90.47;102428.88;4973100;28;20196;-78
2022/12/01 08:39:04;;;;;;;101.43;41.13;;;1.10;99.90;;;1.13;90.18;102432.28;4959041;29;20191;-78
2022/12/01 08:41:33;;;;;;;102.75;38.30;;;1.20;99.90;;;1.15;90.14;102433.03;4959588;29;20180;-78
2022/12/01 08:44:02;;;;;;;74.18;34.53;;;1.20;99.90;;;1.23;90.36;102436.03;4958084;28;20250;-78
2022/12/01 08:46:35;;;;;;;84.55;35.92;;;1.30;99.90;;;1.28;89.36;102441.91;4959669;29;20199;-79
2022/12/01 08:49:06;;;;;;;86.15;35.30;;;1.30;99.90;;;1.11;89.88;102439.53;4958739;29;20184;-78
2022/12/01 08:51:36;;;;;;;77.30;33.55;;;1.30;99.90;;;1.13;89.62;102440.28;4956873;29;20200;-78
2022/12/01 08:54:05;;;;;;;77.68;34.63;;;1.30;99.90;;;1.03;90.05;102431.19;4972578;28;20220;-78
2022/12/01 08:56:38;;;;;;;89.32;35.35;;;1.20;99.90;;;1.11;89.94;102436.03;4955736;29;20582;-78
2022/12/01 08:59:08;;;;;;;96.05;38.65;;;1.30;99.90;;;1.10;90.18;102436.97;4957757;29;20184;-78
2022/12/01 09:01:50;;;;;;;89.38;32.58;;;1.20;99.90;;;1.06;90.51;102430.13;4939738;29;20521;-77
2022/12/01 09:04:24;;;;;;;100.18;36.40;;;1.20;99.90;;;1.20;89.75;102440.72;4955409;29;20204;-77
2022/12/01 09:06:55;;;;;;;102.45;37.28;;;1.30;99.90;;;1.28;89.52;102433.91;4956217;29;20246;-77
2022/12/01 09:09:27;;;;;;;99.63;38.53;;;1.30;99.90;;;1.19;89.12;102442.53;4956812;29;20199;-77
2022/12/01 09:11:57;;;;;;;81.10;34.13;;;1.40;99.90;;;0.94;90.20;102442.47;4961158;29;20172;-76
2022/12/01 09:14:27;;;;;;;91.38;36.67;;;1.20;99.90;;;0.95;90.57;102448.66;4958271;29;20216;-76
2022/12/01 09:16:55;;;;;;;104.07;35.97;;;1.10;99.90;;;0.95;90.77;102449.50;4955996;29;20726;-77
2022/12/01 09:19:27;;;;;;;77.35;29.08;;;1.10;99.90;;;0.89;91.00;102441.91;4957242;29;20203;-79
2022/12/01 09:21:57;;;;;;;97.97;37.03;;;1.10;99.90;;;1.03;91.05;102447.19;4964330;29;20180;-79
2022/12/01 09:24:27;;;;;;;77.15;33.17;;;1.10;99.90;;;1.00;90.47;102447.41;4962596;29;20691;-79
2022/12/01 09:26:58;;;;;;;93.15;37.05;;;1.10;99.90;;;0.96;90.58;102451.22;4948807;29;20208;-79
2022/12/01 09:29:27;;;;;;;113.50;37.13;;;1.10;99.90;;;0.87;90.73;102447.34;4967856;29;20256;-79
2022/12/01 09:31:57;;;;;;;93.72;36.50;;;1.10;99.90;;;0.96;91.01;102445.91;4946500;29;20193;-79
2022/12/01 09:34:29;;;;;;;89.30;35.50;;;1.10;99.90;;;1.02;90.66;102444.59;4947692;29;20201;-78
2022/12/01 09:36:58;;;;;;;96.25;33.25;;;1.10;99.90;;;0.95;90.41;102438.84;4947186;29;20180;-79
2022/12/01 09:39:28;;;;;;;81.43;33.97;;;1.10;99.90;;;0.94;90.70;102437.13;4941072;29;20208;-80
2022/12/01 09:42:04;;;;;;;86.30;31.20;;;1.10;99.90;;;0.99;90.09;102432.34;4968167;29;20200;-80
2022/12/01 09:44:44;;;;;;;99.55;35.63;;;1.20;99.90;;;0.88;90.57;102432.22;4969823;29;20742;-79
2022/12/01 09:47:21;;;;;;;82.47;33.92;;;1.10;99.90;;;0.92;90.45;102428.38;4969744;29;20206;-80
2022/12/01 09:50:02;;;;;;;75.90;27.77;;;1.10;99.90;;;0.91;90.17;102442.69;4970234;29;20172;-79
2022/12/01 09:52:40;;;;;;;69.20;29.58;;;1.00;99.90;;;1.06;90.02;102440.81;4969283;29;20200;-79
2022/12/01 09:55:13;;;;;;;61.65;32.67;;;1.00;99.90;;;1.01;89.47;102438.44;4963715;29;20212;-79
2022/12/01 09:57:50;;;;;;;82.97;34.30;;;1.10;99.90;;;0.96;89.39;102434.38;4962839;29;20195;-81
2022/12/01 10:00:25;;;;;;;68.70;28.42;;;1.10;99.90;;;0.91;89.38;102429.34;4973870;29;20216;-80
2022/12/01 10:03:02;;;;;;;73.25;31.33;;;1.10;99.90;;;0.94;89.41;102429.13;4977072;28;20568;-80
2022/12/01 10:05:45;;;;;;;83.15;34.47;;;1.10;99.90;;;0.96;89.24;102432.56;4972381;29;20271;-81
2022/12/01 10:08:43;;;;;;;74.32;30.98;;;1.10;99.90;;;1.21;88.42;102434.44;4961798;29;20196;-81
2022/12/01 10:11:30;;;;;;;78.15;32.55;;;1.20;99.90;;;1.28;87.66;102431.25;4959926;29;20199;-80
2022/12/01 10:14:17;;;;;;;65.20;28.88;;;1.30;99.90;;;1.28;87.45;102428.56;4956002;29;20275;-80
2022/12/01 10:17:09;;;;;;;63.75;29.92;;;1.30;99.90;;;1.23;87.16;102435.16;4952904;29;20221;-76
2022/12/01 10:19:52;;;;;;;74.05;31.70;;;1.30;99.90;;;1.31;87.44;102425.69;4931220;29;20559;-76
2022/12/01 10:22:53;;;;;;;58.80;27.40;;;1.30;99.90;;;1.17;86.88;102423.09;4941996;29;20727;-75
2022/12/01 10:25:26;;;;;;;69.88;28.23;;;1.40;99.90;;;1.25;86.74;102411.94;4958064;29;20577;-77
2022/12/01 10:28:28;;;;;;;68.43;27.52;;;1.30;99.90;;;1.28;87.02;102420.56;4958384;29;20581;-76
2022/12/01 10:31:15;;;;;;;63.10;31.48;;;1.40;99.90;;;1.38;86.18;102415.47;4958257;29;20183;-77
2022/12/01 10:33:58;;;;;;;68.47;30.58;;;1.50;99.90;;;1.39;86.21;102421.66;4963072;29;20204;-77
2022/12/01 10:36:31;;;;;;;67.03;32.35;;;1.50;99.90;;;1.45;86.30;102415.91;4965854;29;20218;-78
2022/12/01 10:39:03;;;;;;;57.83;26.15;;;1.50;99.90;;;1.40;86.27;102418.03;4964518;29;20177;-77
2022/12/01 10:41:38;;;;;;;55.13;28.60;;;1.40;99.90;;;1.43;85.89;102417.81;4965160;29;20200;-78
2022/12/01 10:44:09;;;;;;;69.13;32.88;;;1.40;99.90;;;1.44;86.01;102417.72;4947237;29;20216;-78